createdAt,value
2018-01-12T00:00:29.127Z,0
2018-01-12T00:01:38.584Z,0
2018-01-12T00:02:48.572Z,0
2018-01-12T00:03:58.288Z,0
2018-01-12T00:05:08.280Z,0
2018-01-12T00:06:18.000Z,0
2018-01-12T00:07:27.984Z,0
2018-01-12T00:08:37.433Z,0
2018-01-12T00:09:47.417Z,0
2018-01-12T00:10:57.407Z,0
2018-01-12T00:12:07.126Z,0
2018-01-12T00:13:17.105Z,0
2018-01-12T00:14:26.921Z,0
2018-01-12T00:15:36.909Z,0
2018-01-12T00:16:46.629Z,0
2018-01-12T00:17:56.343Z,0
2018-01-12T00:19:06.322Z,0
2018-01-12T00:20:16.311Z,0
2018-01-12T00:21:26.286Z,0
2018-01-12T00:22:35.470Z,0
2018-01-12T00:23:45.189Z,0
2018-01-12T00:24:55.168Z,0
2018-01-12T00:26:04.886Z,0
2018-01-12T00:27:14.605Z,0
2018-01-12T00:28:24.594Z,0
2018-01-12T00:29:34.578Z,0
2018-01-12T00:30:44.025Z,0
2018-01-12T00:31:54.064Z,0
2018-01-12T00:33:03.786Z,0
2018-01-12T00:34:13.504Z,0
2018-01-12T00:35:23.227Z,0
2018-01-12T00:36:32.942Z,0
2018-01-12T00:37:42.933Z,0
2018-01-12T00:38:52.915Z,0
2018-01-12T00:40:02.894Z,0
2018-01-12T00:41:12.615Z,0
2018-01-12T00:42:22.596Z,0
2018-01-12T00:43:32.575Z,0
2018-01-12T00:44:42.026Z,0
2018-01-12T00:45:51.740Z,0
2018-01-12T00:47:01.454Z,0
2018-01-12T00:48:10.907Z,0
2018-01-12T00:49:20.944Z,0
2018-01-12T00:50:30.924Z,0
2018-01-12T00:51:40.639Z,0
2018-01-12T00:52:50.354Z,0
2018-01-12T00:54:00.072Z,0
2018-01-12T00:55:09.797Z,0
2018-01-12T00:56:19.776Z,0
2018-01-12T00:57:29.492Z,0
2018-01-12T00:58:39.211Z,0
2018-01-12T00:59:48.662Z,0
2018-01-12T01:00:58.641Z,0
2018-01-12T01:02:08.362Z,0
2018-01-12T01:03:18.077Z,0
2018-01-12T01:04:28.076Z,0
2018-01-12T01:05:37.841Z,0
2018-01-12T01:06:47.555Z,0
2018-01-12T01:07:57.273Z,0
2018-01-12T01:09:07.253Z,0
2018-01-12T01:10:17.234Z,0
2018-01-12T01:11:27.213Z,0
2018-01-12T01:12:36.931Z,0
2018-01-12T01:13:46.698Z,0
2018-01-12T01:14:56.673Z,0
2018-01-12T01:16:06.660Z,0
2018-01-12T01:17:16.372Z,0
2018-01-12T01:18:26.355Z,0
2018-01-12T01:19:36.334Z,0
2018-01-12T01:20:46.313Z,0
2018-01-12T01:21:56.296Z,0
2018-01-12T01:23:06.277Z,0
2018-01-12T01:24:16.054Z,0
2018-01-12T01:25:26.038Z,0
2018-01-12T01:26:36.020Z,0
2018-01-12T01:27:46.002Z,0
2018-01-12T01:28:56.024Z,0
2018-01-12T01:30:06.010Z,0
2018-01-12T01:31:15.734Z,0
2018-01-12T01:32:25.449Z,0
2018-01-12T01:33:34.899Z,0
2018-01-12T01:34:44.617Z,0
2018-01-12T01:35:54.691Z,0
2018-01-12T01:37:04.671Z,0
2018-01-12T01:38:14.393Z,0
2018-01-12T01:39:24.376Z,0
2018-01-12T01:40:33.821Z,0
2018-01-12T01:41:43.805Z,0
2018-01-12T01:42:53.789Z,0
2018-01-12T01:44:03.772Z,0
2018-01-12T01:45:13.751Z,0
2018-01-12T01:46:23.734Z,0
2018-01-12T01:47:33.459Z,0
2018-01-12T01:48:43.452Z,0
2018-01-12T01:49:53.438Z,0
2018-01-12T01:51:03.420Z,0
2018-01-12T01:52:13.139Z,0
2018-01-12T01:53:23.118Z,0
2018-01-12T01:54:32.840Z,0
2018-01-12T01:55:42.822Z,0
2018-01-12T01:56:52.799Z,0
2018-01-12T01:58:02.781Z,0
2018-01-12T01:59:12.245Z,0
2018-01-12T02:00:22.225Z,0
2018-01-12T02:01:32.210Z,0
2018-01-12T02:02:41.931Z,0
2018-01-12T02:03:51.987Z,0
2018-01-12T02:05:01.969Z,0
2018-01-12T02:06:11.949Z,0
2018-01-12T02:07:21.927Z,0
2018-01-12T02:08:31.646Z,0
2018-01-12T02:09:41.629Z,0
2018-01-12T02:10:51.704Z,0
2018-01-12T02:12:01.695Z,0
2018-01-12T02:13:11.683Z,0
2018-01-12T02:14:21.662Z,0
2018-01-12T02:15:31.641Z,0
2018-01-12T02:16:41.622Z,0
2018-01-12T02:17:51.608Z,0
2018-01-12T02:19:01.592Z,0
2018-01-12T02:20:11.581Z,0
2018-01-12T02:21:21.299Z,0
2018-01-12T02:22:31.332Z,0
2018-01-12T02:23:41.312Z,0
2018-01-12T02:24:51.026Z,0
2018-01-12T02:26:01.005Z,0
2018-01-12T02:27:10.456Z,0
2018-01-12T02:28:20.167Z,0
2018-01-12T02:29:29.883Z,0
2018-01-12T02:30:39.872Z,0
2018-01-12T02:31:49.861Z,0
2018-01-12T02:32:59.846Z,0
2018-01-12T02:34:09.609Z,0
2018-01-12T02:35:19.324Z,0
2018-01-12T02:36:29.309Z,0
2018-01-12T02:37:39.292Z,0
2018-01-12T02:38:49.283Z,0
2018-01-12T02:39:59.289Z,0
2018-01-12T02:41:09.278Z,0
2018-01-12T02:42:19.014Z,0
2018-01-12T02:43:29.010Z,0
2018-01-12T02:44:38.775Z,0
2018-01-12T02:45:48.817Z,0
2018-01-12T02:46:58.798Z,0
2018-01-12T02:48:08.786Z,0
2018-01-12T02:49:18.835Z,0
2018-01-12T02:50:28.822Z,0
2018-01-12T02:51:38.814Z,0
2018-01-12T02:52:48.524Z,0
2018-01-12T02:53:58.524Z,0
2018-01-12T02:55:07.979Z,0
2018-01-12T02:56:17.964Z,0
2018-01-12T02:57:27.689Z,0
2018-01-12T02:58:37.138Z,0
2018-01-12T02:59:47.138Z,0
2018-01-12T03:00:57.118Z,0
2018-01-12T03:02:07.110Z,0
2018-01-12T03:03:17.094Z,0
2018-01-12T03:04:27.086Z,0
2018-01-12T03:05:36.804Z,0
2018-01-12T03:06:46.783Z,0
2018-01-12T03:07:56.761Z,0
2018-01-12T03:09:06.796Z,0
2018-01-12T03:10:16.774Z,0
2018-01-12T03:11:26.753Z,0
2018-01-12T03:12:36.730Z,0
2018-01-12T03:13:46.439Z,0
2018-01-12T03:14:56.203Z,0
2018-01-12T03:16:06.186Z,0
2018-01-12T03:17:16.169Z,0
2018-01-12T03:18:26.152Z,0
2018-01-12T03:19:36.135Z,0
2018-01-12T03:20:46.115Z,0
2018-01-12T03:21:56.095Z,0
2018-01-12T03:23:06.073Z,0
2018-01-12T03:24:16.064Z,0
2018-01-12T03:25:26.046Z,0
2018-01-12T03:26:36.181Z,0
2018-01-12T03:27:46.210Z,0
2018-01-12T03:28:55.962Z,0
2018-01-12T03:30:05.676Z,0
2018-01-12T03:31:15.416Z,0
2018-01-12T03:32:25.136Z,0
2018-01-12T03:33:34.847Z,0
2018-01-12T03:34:44.832Z,0
2018-01-12T03:35:54.811Z,0
2018-01-12T03:37:04.795Z,0
2018-01-12T03:38:14.779Z,0
2018-01-12T03:39:24.817Z,0
2018-01-12T03:40:34.001Z,0
2018-01-12T03:41:43.984Z,0
2018-01-12T03:42:53.962Z,0
2018-01-12T03:44:03.965Z,0
2018-01-12T03:45:13.948Z,0
2018-01-12T03:46:23.927Z,0
2018-01-12T03:47:33.913Z,0
2018-01-12T03:48:43.625Z,0
2018-01-12T03:49:53.604Z,0
2018-01-12T03:51:03.585Z,0
2018-01-12T03:52:13.308Z,0
2018-01-12T03:53:23.045Z,0
2018-01-12T03:54:32.495Z,0
2018-01-12T03:55:42.206Z,0
2018-01-12T03:56:52.193Z,0
2018-01-12T03:58:02.175Z,0
2018-01-12T03:59:11.889Z,0
2018-01-12T04:03:36.823Z,0
2018-01-12T04:04:46.806Z,0
2018-01-12T04:05:56.783Z,0
2018-01-12T04:07:06.765Z,0
2018-01-12T04:08:16.479Z,0
2018-01-12T04:09:26.556Z,0
2018-01-12T04:10:36.269Z,0
2018-01-12T04:11:46.248Z,0
2018-01-12T04:12:56.226Z,0
2018-01-12T04:14:06.203Z,0
2018-01-12T04:15:16.185Z,0
2018-01-12T04:16:25.898Z,0
2018-01-12T04:17:35.345Z,0
2018-01-12T04:18:45.332Z,0
2018-01-12T04:19:55.359Z,0
2018-01-12T04:21:05.398Z,0
2018-01-12T04:22:15.378Z,0
2018-01-12T04:23:25.361Z,0
2018-01-12T04:24:35.341Z,0
2018-01-12T04:25:45.322Z,0
2018-01-12T04:26:55.033Z,0
2018-01-12T04:28:05.022Z,0
2018-01-12T04:29:15.006Z,0
2018-01-12T04:30:24.995Z,0
2018-01-12T04:31:34.973Z,0
2018-01-12T04:32:44.418Z,0
2018-01-12T04:33:54.394Z,0
2018-01-12T04:35:04.386Z,0
2018-01-12T04:36:14.106Z,0
2018-01-12T04:37:24.082Z,0
2018-01-12T04:38:33.798Z,0
2018-01-12T04:39:43.776Z,0
2018-01-12T04:40:53.488Z,0
2018-01-12T04:42:03.199Z,0
2018-01-12T04:43:13.185Z,0
2018-01-12T04:44:23.162Z,0
2018-01-12T04:45:33.145Z,0
2018-01-12T04:46:42.858Z,0
2018-01-12T04:47:52.834Z,0
2018-01-12T04:49:02.812Z,0
2018-01-12T04:50:12.793Z,0
2018-01-12T04:51:22.770Z,0
2018-01-12T04:52:32.758Z,0
2018-01-12T04:53:42.740Z,0
2018-01-12T04:54:52.718Z,0
2018-01-12T04:56:02.536Z,0
2018-01-12T04:57:12.532Z,0
2018-01-12T04:58:22.265Z,0
2018-01-12T04:59:31.999Z,0
2018-01-12T05:00:42.008Z,0
2018-01-12T05:01:52.007Z,0
2018-01-12T05:03:01.740Z,0
2018-01-12T05:04:11.741Z,0
2018-01-12T05:05:21.741Z,0
2018-01-12T05:06:31.743Z,0
2018-01-12T05:07:41.790Z,0
2018-01-12T05:08:51.256Z,0
2018-01-12T05:10:01.256Z,0
2018-01-12T05:11:10.996Z,0
2018-01-12T05:12:20.779Z,0
2018-01-12T05:13:30.779Z,0
2018-01-12T05:14:40.245Z,0
2018-01-12T05:15:49.976Z,0
2018-01-12T05:16:59.710Z,0
2018-01-12T05:18:09.716Z,0
2018-01-12T05:19:19.719Z,0
2018-01-12T05:20:29.719Z,0
2018-01-12T05:21:39.717Z,0
2018-01-12T05:22:49.765Z,0
2018-01-12T05:23:59.490Z,0
2018-01-12T05:25:09.476Z,0
2018-01-12T05:26:19.192Z,0
2018-01-12T05:27:29.167Z,0
2018-01-12T05:28:38.883Z,0
2018-01-12T05:29:48.857Z,0
2018-01-12T05:30:58.832Z,0
2018-01-12T05:32:08.824Z,0
2018-01-12T05:33:18.540Z,0
2018-01-12T05:34:28.521Z,0
2018-01-12T05:35:38.236Z,0
2018-01-12T05:36:47.951Z,0
2018-01-12T05:37:57.926Z,0
2018-01-12T05:39:07.920Z,0
2018-01-12T05:40:17.899Z,0
2018-01-12T05:41:27.878Z,0
2018-01-12T05:42:37.327Z,0
2018-01-12T05:43:47.041Z,0
2018-01-12T05:44:57.026Z,0
2018-01-12T05:46:07.014Z,0
2018-01-12T05:47:17.004Z,0
2018-01-12T05:48:26.719Z,0
2018-01-12T05:49:36.703Z,0
2018-01-12T05:50:46.675Z,0
2018-01-12T05:51:56.687Z,0
2018-01-12T05:53:06.674Z,0
2018-01-12T05:54:16.447Z,0
2018-01-12T05:55:26.427Z,0
2018-01-12T05:56:36.142Z,0
2018-01-12T05:57:46.129Z,0
2018-01-12T05:58:56.113Z,0
2018-01-12T06:00:05.833Z,0
2018-01-12T06:01:15.548Z,0
2018-01-12T06:02:25.530Z,0
2018-01-12T06:03:35.509Z,0
2018-01-12T06:04:45.220Z,0
2018-01-12T06:05:54.990Z,0
2018-01-12T06:07:04.973Z,0
2018-01-12T06:08:14.422Z,0
2018-01-12T06:09:24.408Z,0
2018-01-12T06:10:34.404Z,0
2018-01-12T06:11:44.384Z,0
2018-01-12T06:12:54.368Z,0
2018-01-12T06:14:04.354Z,0
2018-01-12T06:15:14.339Z,0
2018-01-12T06:16:24.334Z,0
2018-01-12T06:17:34.046Z,0
2018-01-12T06:18:44.029Z,0
2018-01-12T06:19:53.746Z,0
2018-01-12T06:21:03.734Z,0
2018-01-12T06:22:13.459Z,0
2018-01-12T06:23:23.447Z,0
2018-01-12T06:24:33.429Z,0
2018-01-12T06:25:43.409Z,0
2018-01-12T06:26:53.400Z,0
2018-01-12T06:28:03.432Z,0
2018-01-12T06:29:13.153Z,0
2018-01-12T06:30:23.131Z,0
2018-01-12T06:31:33.121Z,0
2018-01-12T06:32:43.115Z,0
2018-01-12T06:33:53.107Z,0
2018-01-12T06:35:03.092Z,0
2018-01-12T06:36:12.553Z,0
2018-01-12T06:37:22.006Z,0
2018-01-12T06:38:31.990Z,0
2018-01-12T06:39:41.764Z,0
2018-01-12T06:40:51.847Z,0
2018-01-12T06:42:01.832Z,0
2018-01-12T06:43:11.808Z,0
2018-01-12T06:44:21.528Z,0
2018-01-12T06:45:31.515Z,0
2018-01-12T06:46:41.231Z,0
2018-01-12T06:47:51.211Z,0
2018-01-12T06:49:00.925Z,0
2018-01-12T06:50:10.914Z,0
2018-01-12T06:51:20.901Z,0
2018-01-12T06:52:30.619Z,0
2018-01-12T06:53:40.664Z,0
2018-01-12T06:54:50.651Z,0
2018-01-12T06:56:00.628Z,0
2018-01-12T06:57:10.611Z,0
2018-01-12T06:58:20.601Z,0
2018-01-12T06:59:30.115Z,0
2018-01-12T07:00:40.098Z,0
2018-01-12T07:01:50.081Z,0
2018-01-12T07:03:00.069Z,0
2018-01-12T07:04:10.059Z,0
2018-01-12T07:05:20.040Z,0
2018-01-12T07:06:30.049Z,4
2018-01-12T07:07:40.029Z,0
2018-01-12T07:08:50.006Z,0
2018-01-12T07:09:59.826Z,0
2018-01-12T07:11:09.808Z,0
2018-01-12T07:12:19.526Z,0
2018-01-12T07:13:29.506Z,0
2018-01-12T07:14:39.226Z,0
2018-01-12T07:15:48.942Z,4
2018-01-12T07:16:58.660Z,0
2018-01-12T07:18:08.650Z,0
2018-01-12T07:19:18.640Z,0
2018-01-12T07:20:28.619Z,4
2018-01-12T07:21:38.350Z,4
2018-01-12T07:22:48.340Z,0
2018-01-12T07:23:58.065Z,4
2018-01-12T07:25:08.048Z,4
2018-01-12T07:26:17.775Z,0
2018-01-12T07:27:27.541Z,4
2018-01-12T07:28:36.459Z,0
2018-01-12T07:29:46.460Z,4
2018-01-12T07:30:56.436Z,4
2018-01-12T07:32:06.429Z,4
2018-01-12T07:33:16.135Z,4
2018-01-12T07:34:25.587Z,8
2018-01-12T07:35:35.036Z,8
2018-01-12T07:36:45.020Z,8
2018-01-12T07:37:54.740Z,12
2018-01-12T07:39:04.749Z,12
2018-01-12T07:40:14.727Z,12
2018-01-12T07:41:24.708Z,16
2018-01-12T07:42:34.697Z,20
2018-01-12T07:43:44.682Z,20
2018-01-12T07:44:54.189Z,24
2018-01-12T07:46:03.906Z,24
2018-01-12T07:47:13.892Z,28
2018-01-12T07:48:23.878Z,32
2018-01-12T07:49:33.599Z,36
2018-01-12T07:50:43.579Z,40
2018-01-12T07:51:53.555Z,44
2018-01-12T07:53:03.268Z,48
2018-01-12T07:54:12.722Z,52
2018-01-12T07:55:22.705Z,60
2018-01-12T07:56:32.690Z,64
2018-01-12T07:57:42.671Z,72
2018-01-12T07:58:52.657Z,76
2018-01-12T08:00:02.640Z,84
2018-01-12T08:01:12.421Z,96
2018-01-12T08:02:22.410Z,100
2018-01-12T08:03:32.127Z,112
2018-01-12T08:04:41.573Z,120
2018-01-12T08:05:51.282Z,132
2018-01-12T08:07:01.260Z,148
2018-01-12T08:08:10.491Z,156
2018-01-12T08:09:20.464Z,168
2018-01-12T08:10:30.446Z,176
2018-01-12T08:11:39.891Z,184
2018-01-12T08:12:49.865Z,192
2018-01-12T08:13:59.843Z,204
2018-01-12T08:15:09.814Z,212
2018-01-12T08:16:19.529Z,220
2018-01-12T08:17:29.511Z,232
2018-01-12T08:18:39.228Z,244
2018-01-12T08:19:49.206Z,260
2018-01-12T08:20:58.650Z,280
2018-01-12T08:22:08.626Z,300
2018-01-12T08:23:18.331Z,328
2018-01-12T08:24:28.038Z,360
2018-01-12T08:25:37.754Z,388
2018-01-12T08:26:47.473Z,416
2018-01-12T08:27:57.443Z,448
2018-01-12T08:29:07.417Z,476
2018-01-12T08:30:17.402Z,504
2018-01-12T08:31:27.434Z,524
2018-01-12T08:32:37.143Z,540
2018-01-12T08:33:46.852Z,556
2018-01-12T08:34:56.824Z,564
2018-01-12T08:36:06.796Z,572
2018-01-12T08:37:16.771Z,580
2018-01-12T08:38:26.743Z,584
2018-01-12T08:39:36.716Z,600
2018-01-12T08:40:46.686Z,624
2018-01-12T08:41:56.393Z,648
2018-01-12T08:43:06.155Z,684
2018-01-12T08:44:15.871Z,716
2018-01-12T08:45:25.845Z,744
2018-01-12T08:46:35.823Z,780
2018-01-12T08:47:45.799Z,816
2018-01-12T08:48:55.300Z,856
2018-01-12T08:50:05.010Z,896
2018-01-12T08:51:14.460Z,940
2018-01-12T08:52:24.180Z,980
2018-01-12T08:53:33.622Z,1028
2018-01-12T08:54:43.328Z,1076
2018-01-12T08:55:53.307Z,1112
2018-01-12T08:57:03.280Z,1140
2018-01-12T08:58:12.462Z,1168
2018-01-12T08:59:22.219Z,1204
2018-01-12T09:00:32.204Z,1224
2018-01-12T09:01:42.184Z,1244
2018-01-12T09:02:51.896Z,1272
2018-01-12T09:04:01.877Z,1316
2018-01-12T09:05:11.588Z,1364
2018-01-12T09:06:21.301Z,1416
2018-01-12T09:07:31.010Z,1456
2018-01-12T09:08:40.723Z,1484
2018-01-12T09:09:50.702Z,1476
2018-01-12T09:11:00.889Z,1452
2018-01-12T09:12:10.338Z,1472
2018-01-12T09:13:20.309Z,1492
2018-01-12T09:14:30.040Z,1512
2018-01-12T09:15:39.221Z,1520
2018-01-12T09:16:49.210Z,1532
2018-01-12T09:17:58.716Z,1552
2018-01-12T09:19:08.702Z,1580
2018-01-12T09:20:18.683Z,1608
2018-01-12T09:21:28.143Z,1612
2018-01-12T09:22:37.594Z,1612
2018-01-12T09:23:49.410Z,1616
2018-01-12T09:24:59.486Z,1624
2018-01-12T09:26:09.470Z,1636
2018-01-12T09:27:19.446Z,1656
2018-01-12T09:28:29.162Z,1676
2018-01-12T09:29:38.878Z,1700
2018-01-12T09:30:48.852Z,1736
2018-01-12T09:31:58.559Z,1772
2018-01-12T09:33:08.535Z,1812
2018-01-12T09:34:18.510Z,1856
2018-01-12T09:35:28.493Z,1924
2018-01-12T09:36:38.204Z,1992
2018-01-12T09:37:47.912Z,2024
2018-01-12T09:38:57.881Z,2028
2018-01-12T09:40:07.329Z,2048
2018-01-12T09:41:16.773Z,2044
2018-01-12T09:42:26.481Z,2028
2018-01-12T09:43:35.926Z,2020
2018-01-12T09:44:45.636Z,2012
2018-01-12T09:45:55.612Z,2000
2018-01-12T09:47:05.587Z,1988
2018-01-12T09:48:15.304Z,1964
2018-01-12T09:49:25.277Z,1928
2018-01-12T09:50:34.757Z,1888
2018-01-12T09:51:44.786Z,1836
2018-01-12T09:52:54.810Z,1812
2018-01-12T09:54:04.793Z,1808
2018-01-12T09:55:14.248Z,1816
2018-01-12T09:56:24.230Z,1836
2018-01-12T09:57:33.409Z,1872
2018-01-12T09:58:42.855Z,1908
2018-01-12T09:59:52.835Z,1960
2018-01-12T10:01:02.859Z,2036
2018-01-12T10:02:12.572Z,2112
2018-01-12T10:03:22.286Z,2164
2018-01-12T10:04:31.734Z,2216
2018-01-12T10:05:41.442Z,2276
2018-01-12T10:06:50.621Z,2320
2018-01-12T10:08:00.065Z,2340
2018-01-12T10:09:09.781Z,2360
2018-01-12T10:10:19.490Z,2384
2018-01-12T10:11:29.194Z,2392
2018-01-12T10:12:38.639Z,2376
2018-01-12T10:13:48.362Z,2352
2018-01-12T10:14:58.078Z,2320
2018-01-12T10:16:07.838Z,2276
2018-01-12T10:17:17.809Z,2248
2018-01-12T10:18:27.515Z,2232
2018-01-12T10:19:36.984Z,2232
2018-01-12T10:20:46.951Z,2256
2018-01-12T10:21:56.398Z,2312
2018-01-12T10:23:06.362Z,2408
2018-01-12T10:24:16.342Z,2536
2018-01-12T10:25:26.309Z,2664
2018-01-12T10:26:35.751Z,2788
2018-01-12T10:27:45.821Z,2920
2018-01-12T10:28:55.530Z,3068
2018-01-12T10:30:05.509Z,3184
2018-01-12T10:31:14.953Z,3252
2018-01-12T10:32:24.925Z,3268
2018-01-12T10:33:34.733Z,3244
2018-01-12T10:34:44.444Z,3208
2018-01-12T10:35:54.155Z,3168
2018-01-12T10:37:04.136Z,3132
2018-01-12T10:38:14.107Z,3124
2018-01-12T10:39:24.087Z,3128
2018-01-12T10:40:33.535Z,3164
2018-01-12T10:41:43.243Z,3208
2018-01-12T10:42:52.946Z,3260
2018-01-12T10:44:02.661Z,3280
2018-01-12T10:45:12.636Z,3268
2018-01-12T10:46:22.408Z,3224
2018-01-12T10:47:31.866Z,3148
2018-01-12T10:48:41.839Z,3072
2018-01-12T10:49:51.811Z,2980
2018-01-12T10:51:01.783Z,2900
2018-01-12T10:52:11.229Z,2876
2018-01-12T10:53:20.939Z,2924
2018-01-12T10:54:30.648Z,2988
2018-01-12T10:55:40.367Z,3024
2018-01-12T10:56:50.438Z,3044
2018-01-12T10:58:00.409Z,3020
2018-01-12T10:59:10.120Z,2940
2018-01-12T11:00:20.045Z,2844
2018-01-12T11:01:29.226Z,2776
2018-01-12T11:02:38.952Z,2736
2018-01-12T11:03:48.921Z,2716
2018-01-12T11:04:58.932Z,2720
2018-01-12T11:06:08.644Z,2736
2018-01-12T11:07:18.357Z,2728
2018-01-12T11:08:28.071Z,2716
2018-01-12T11:09:37.247Z,2696
2018-01-12T11:10:47.227Z,2700
2018-01-12T11:11:57.202Z,2720
2018-01-12T11:13:06.913Z,2732
2018-01-12T11:14:16.363Z,2748
2018-01-12T11:15:26.073Z,2788
2018-01-12T11:16:36.048Z,2816
2018-01-12T11:17:46.023Z,2832
2018-01-12T11:18:55.731Z,2836
2018-01-12T11:20:05.177Z,2836
2018-01-12T11:21:14.898Z,2820
2018-01-12T11:22:24.708Z,2812
2018-01-12T11:23:33.894Z,2816
2018-01-12T11:24:43.604Z,2816
2018-01-12T11:25:53.633Z,2800
2018-01-12T11:27:03.610Z,2796
2018-01-12T11:28:13.320Z,2792
2018-01-12T11:29:23.298Z,2768
2018-01-12T11:30:33.271Z,2764
2018-01-12T11:31:43.255Z,2768
2018-01-12T11:32:52.961Z,2788
2018-01-12T11:34:02.686Z,2800
2018-01-12T11:35:12.406Z,2820
2018-01-12T11:36:22.382Z,2824
2018-01-12T11:37:32.404Z,2808
2018-01-12T11:38:41.855Z,2772
2018-01-12T11:39:51.572Z,2756
2018-01-12T11:41:01.283Z,2772
2018-01-12T11:42:10.991Z,2792
2018-01-12T11:43:21.067Z,2792
2018-01-12T11:44:31.046Z,2792
2018-01-12T11:45:40.493Z,2784
2018-01-12T11:46:49.938Z,2784
2018-01-12T11:47:59.648Z,2784
2018-01-12T11:49:09.679Z,2776
2018-01-12T11:50:19.390Z,2768
2018-01-12T11:51:29.099Z,2772
2018-01-12T11:52:38.807Z,2784
2018-01-12T11:53:48.780Z,2808
2018-01-12T11:54:58.489Z,2844
2018-01-12T11:56:07.933Z,2864
2018-01-12T11:57:17.644Z,2864
2018-01-12T11:58:27.409Z,2840
2018-01-12T11:59:37.386Z,2820
2018-01-12T12:00:47.099Z,2824
2018-01-12T12:01:56.811Z,2864
2018-01-12T12:03:06.791Z,2868
2018-01-12T12:04:16.763Z,2844
2018-01-12T12:05:26.737Z,2820
2018-01-12T12:06:36.449Z,2804
2018-01-12T12:07:46.185Z,2792
2018-01-12T12:08:55.955Z,2768
2018-01-12T12:10:05.670Z,2740
2018-01-12T12:11:15.381Z,2728
2018-01-12T12:12:25.086Z,2732
2018-01-12T12:13:34.806Z,2732
2018-01-12T12:14:44.517Z,2708
2018-01-12T12:15:54.497Z,2664
2018-01-12T12:17:03.950Z,2624
2018-01-12T12:18:13.709Z,2608
2018-01-12T12:19:23.422Z,2600
2018-01-12T12:20:32.868Z,2572
2018-01-12T12:21:42.581Z,2524
2018-01-12T12:22:52.295Z,2444
2018-01-12T12:24:01.738Z,2384
2018-01-12T12:25:11.449Z,2352
2018-01-12T12:26:21.421Z,2332
2018-01-12T12:27:31.401Z,2332
2018-01-12T12:28:40.894Z,2356
2018-01-12T12:29:50.871Z,2356
2018-01-12T12:31:00.844Z,2324
2018-01-12T12:32:10.825Z,2296
2018-01-12T12:33:20.531Z,2288
2018-01-12T12:34:29.973Z,2260
2018-01-12T12:35:39.952Z,2208
2018-01-12T12:36:49.665Z,2156
2018-01-12T12:37:59.114Z,2104
2018-01-12T12:39:09.103Z,2072
2018-01-12T12:40:19.121Z,2056
2018-01-12T12:41:29.095Z,2016
2018-01-12T12:42:39.072Z,1968
2018-01-12T12:43:48.516Z,1932
2018-01-12T12:44:58.490Z,1900
2018-01-12T12:46:08.207Z,1872
2018-01-12T12:47:18.233Z,1852
2018-01-12T12:48:27.942Z,1832
2018-01-12T12:49:37.921Z,1820
2018-01-12T12:50:47.898Z,1804
2018-01-12T12:51:57.609Z,1804
2018-01-12T12:53:07.315Z,1808
2018-01-12T12:54:16.757Z,1800
2018-01-12T12:55:26.204Z,1788
2018-01-12T12:56:35.964Z,1776
2018-01-12T12:57:45.938Z,1764
2018-01-12T12:58:55.917Z,1740
2018-01-12T13:00:05.367Z,1712
2018-01-12T13:01:15.078Z,1704
2018-01-12T13:02:25.047Z,1700
2018-01-12T13:03:34.757Z,1696
2018-01-12T13:04:44.728Z,1672
2018-01-12T13:05:54.440Z,1652
2018-01-12T13:07:04.413Z,1628
2018-01-12T13:08:14.126Z,1608
2018-01-12T13:09:23.835Z,1588
2018-01-12T13:10:33.909Z,1572
2018-01-12T13:11:43.089Z,1548
2018-01-12T13:12:53.064Z,1532
2018-01-12T13:14:02.509Z,1516
2018-01-12T13:15:11.959Z,1496
2018-01-12T13:16:21.669Z,1472
2018-01-12T13:17:31.641Z,1448
2018-01-12T13:18:41.353Z,1428
2018-01-12T13:19:51.062Z,1416
2018-01-12T13:21:01.033Z,1408
2018-01-12T13:22:10.478Z,1396
2018-01-12T13:23:20.192Z,1376
2018-01-12T13:24:29.901Z,1352
2018-01-12T13:25:39.609Z,1340
2018-01-12T13:26:49.585Z,1320
2018-01-12T13:27:59.558Z,1296
2018-01-12T13:29:09.535Z,1280
2018-01-12T13:30:19.533Z,1256
2018-01-12T13:31:29.245Z,1236
2018-01-12T13:32:38.694Z,1220
2018-01-12T13:33:48.803Z,1200
2018-01-12T13:34:58.786Z,1184
2018-01-12T13:36:08.771Z,1152
2018-01-12T13:37:18.751Z,1124
2018-01-12T13:38:28.840Z,1100
2018-01-12T13:39:38.827Z,1080
2018-01-12T13:40:48.532Z,1064
2018-01-12T13:41:58.264Z,1040
2018-01-12T13:43:07.980Z,1016
2018-01-12T13:44:17.687Z,1000
2018-01-12T13:45:27.496Z,976
2018-01-12T13:46:37.472Z,948
2018-01-12T13:47:47.454Z,924
2018-01-12T13:48:57.437Z,900
2018-01-12T13:50:07.148Z,876
2018-01-12T13:51:17.129Z,852
2018-01-12T13:52:26.847Z,828
2018-01-12T13:53:36.824Z,804
2018-01-12T13:54:46.534Z,784
2018-01-12T13:55:56.242Z,764
2018-01-12T13:57:06.005Z,752
2018-01-12T13:58:15.450Z,732
2018-01-12T13:59:25.425Z,716
2018-01-12T14:00:35.144Z,700
2018-01-12T14:01:44.852Z,684
2018-01-12T14:02:54.402Z,664
2018-01-12T14:04:04.121Z,640
2018-01-12T14:05:14.145Z,620
2018-01-12T14:06:23.857Z,596
2018-01-12T14:07:33.915Z,572
2018-01-12T14:08:43.695Z,548
2018-01-12T14:09:53.675Z,524
2018-01-12T14:11:03.649Z,508
2018-01-12T14:12:13.357Z,492
2018-01-12T14:13:23.146Z,472
2018-01-12T14:14:32.965Z,452
2018-01-12T14:15:42.678Z,432
2018-01-12T14:16:52.655Z,416
2018-01-12T14:18:02.642Z,400
2018-01-12T14:19:12.618Z,384
2018-01-12T14:20:22.608Z,368
2018-01-12T14:21:32.321Z,356
2018-01-12T14:22:42.305Z,340
2018-01-12T14:23:52.279Z,324
2018-01-12T14:25:02.254Z,312
2018-01-12T14:26:12.258Z,304
2018-01-12T14:27:22.231Z,292
2018-01-12T14:28:31.677Z,280
2018-01-12T14:29:41.652Z,264
2018-01-12T14:30:51.634Z,256
2018-01-12T14:32:01.509Z,240
2018-01-12T14:33:11.490Z,228
2018-01-12T14:34:21.221Z,216
2018-01-12T14:35:31.192Z,204
2018-01-12T14:36:41.165Z,192
2018-01-12T14:37:50.619Z,180
2018-01-12T14:39:00.378Z,168
2018-01-12T14:40:10.364Z,156
2018-01-12T14:41:20.075Z,148
2018-01-12T14:42:29.799Z,132
2018-01-12T14:43:39.294Z,128
2018-01-12T14:44:48.745Z,116
2018-01-12T14:45:58.456Z,112
2018-01-12T14:47:08.442Z,104
2018-01-12T14:48:18.483Z,92
2018-01-12T14:49:27.991Z,84
2018-01-12T14:50:37.702Z,80
2018-01-12T14:51:47.413Z,72
2018-01-12T14:52:57.190Z,64
2018-01-12T14:54:06.632Z,56
2018-01-12T14:55:16.339Z,56
2018-01-12T14:56:26.313Z,48
2018-01-12T14:57:36.291Z,44
2018-01-12T14:58:46.266Z,40
2018-01-12T14:59:56.242Z,36
2018-01-12T15:01:06.223Z,32
2018-01-12T15:02:15.940Z,28
2018-01-12T15:03:25.916Z,24
2018-01-12T15:04:35.670Z,24
2018-01-12T15:05:45.384Z,20
2018-01-12T15:06:55.355Z,16
2018-01-12T15:08:05.337Z,16
2018-01-12T15:09:15.309Z,12
2018-01-12T15:10:24.755Z,12
2018-01-12T15:11:34.202Z,12
2018-01-12T15:12:44.229Z,12
2018-01-12T15:13:53.939Z,12
2018-01-12T15:15:03.649Z,8
2018-01-12T15:16:13.361Z,8
2018-01-12T15:17:23.074Z,4
2018-01-12T15:18:32.779Z,8
2018-01-12T15:19:42.755Z,4
2018-01-12T15:20:52.461Z,4
2018-01-12T15:22:02.437Z,4
2018-01-12T15:23:12.146Z,4
2018-01-12T15:24:22.118Z,0
2018-01-12T15:25:31.832Z,4
2018-01-12T15:26:41.015Z,4
2018-01-12T15:27:50.725Z,4
2018-01-12T15:29:00.698Z,0
2018-01-12T15:30:10.424Z,0
2018-01-12T15:31:20.131Z,0
2018-01-12T15:32:30.102Z,0
2018-01-12T15:33:39.017Z,0
2018-01-12T15:34:48.732Z,0
2018-01-12T15:35:58.710Z,0
2018-01-12T15:37:08.154Z,0
2018-01-12T15:38:17.862Z,0
2018-01-12T15:39:27.310Z,0
2018-01-12T15:40:37.020Z,0
2018-01-12T15:41:46.993Z,0
2018-01-12T15:42:56.976Z,0
2018-01-12T15:44:06.954Z,0
2018-01-12T15:45:16.928Z,0
2018-01-12T15:46:26.373Z,0
2018-01-12T15:47:36.080Z,0
2018-01-12T15:48:45.793Z,0
2018-01-12T15:49:55.771Z,0
2018-01-12T15:51:05.479Z,0
2018-01-12T15:52:15.201Z,0
2018-01-12T15:53:24.643Z,0
2018-01-12T15:54:34.661Z,0
2018-01-12T15:55:44.704Z,0
2018-01-12T15:56:54.679Z,0
2018-01-12T15:58:04.384Z,0
2018-01-12T15:59:14.360Z,0
2018-01-12T16:00:24.336Z,0
2018-01-12T16:01:33.516Z,0
2018-01-12T16:02:43.494Z,0
2018-01-12T16:03:53.472Z,0
2018-01-12T16:05:03.450Z,0
2018-01-12T16:06:12.629Z,0
2018-01-12T16:07:22.602Z,0
2018-01-12T16:08:32.315Z,0
2018-01-12T16:09:41.798Z,0
2018-01-12T16:10:51.854Z,0
2018-01-12T16:12:01.875Z,0
2018-01-12T16:13:11.585Z,0
2018-01-12T16:14:21.300Z,0
2018-01-12T16:15:31.297Z,0
2018-01-12T16:16:41.004Z,0
2018-01-12T16:17:50.714Z,0
2018-01-12T16:19:00.685Z,0
2018-01-12T16:20:10.132Z,0
2018-01-12T16:21:20.102Z,0
2018-01-12T16:22:30.071Z,0
2018-01-12T16:23:40.041Z,0
2018-01-12T16:24:50.023Z,0
2018-01-12T16:25:59.527Z,0
2018-01-12T16:27:09.233Z,0
2018-01-12T16:28:19.209Z,0
2018-01-12T16:29:29.222Z,0
2018-01-12T16:30:38.938Z,0
2018-01-12T16:31:48.909Z,0
2018-01-12T16:32:58.672Z,0